sensor_id;sensor_type;location;lat;lon;timestamp;P1;durP1;ratioP1;P2;durP2;ratioP2
75639;SDS011;64233;51.486;6.332;2023-02-03T00:00:03;6.88;;;2.85;;
75639;SDS011;64233;51.486;6.332;2023-02-03T00:02:30;8.23;;;3.92;;
75639;SDS011;64233;51.486;6.332;2023-02-03T00:04:56;6.55;;;3.05;;
75639;SDS011;64233;51.486;6.332;2023-02-03T00:07:21;7.10;;;3.42;;
75639;SDS011;64233;51.486;6.332;2023-02-03T00:09:46;5.80;;;4.22;;
75639;SDS011;64233;51.486;6.332;2023-02-03T00:12:12;11.93;;;5.07;;
75639;SDS011;64233;51.486;6.332;2023-02-03T00:14:37;8.40;;;5.47;;
75639;SDS011;64233;51.486;6.332;2023-02-03T00:17:03;15.88;;;7.25;;
75639;SDS011;64233;51.486;6.332;2023-02-03T00:19:29;8.50;;;3.40;;
75639;SDS011;64233;51.486;6.332;2023-02-03T00:21:54;15.15;;;6.80;;
75639;SDS011;64233;51.486;6.332;2023-02-03T00:24:20;10.30;;;5.97;;
75639;SDS011;64233;51.486;6.332;2023-02-03T00:26:47;7.00;;;3.95;;
75639;SDS011;64233;51.486;6.332;2023-02-03T00:29:13;8.35;;;4.43;;
75639;SDS011;64233;51.486;6.332;2023-02-03T00:31:39;8.95;;;4.97;;
75639;SDS011;64233;51.486;6.332;2023-02-03T00:34:04;9.32;;;5.95;;
75639;SDS011;64233;51.486;6.332;2023-02-03T00:36:30;10.98;;;6.40;;
75639;SDS011;64233;51.486;6.332;2023-02-03T00:38:56;3.72;;;3.35;;
75639;SDS011;64233;51.486;6.332;2023-02-03T00:41:21;5.18;;;3.47;;
75639;SDS011;64233;51.486;6.332;2023-02-03T00:43:47;13.15;;;6.30;;
75639;SDS011;64233;51.486;6.332;2023-02-03T00:46:13;10.93;;;6.50;;
75639;SDS011;64233;51.486;6.332;2023-02-03T00:48:38;10.43;;;6.88;;
75639;SDS011;64233;51.486;6.332;2023-02-03T00:51:04;11.00;;;6.57;;
75639;SDS011;64233;51.486;6.332;2023-02-03T00:53:30;5.95;;;4.40;;
75639;SDS011;64233;51.486;6.332;2023-02-03T00:55:55;8.13;;;4.50;;
75639;SDS011;64233;51.486;6.332;2023-02-03T00:58:20;8.80;;;5.45;;
75639;SDS011;64233;51.486;6.332;2023-02-03T01:00:45;6.32;;;4.88;;
75639;SDS011;64233;51.486;6.332;2023-02-03T01:03:11;7.85;;;4.53;;
75639;SDS011;64233;51.486;6.332;2023-02-03T01:05:36;2.95;;;2.35;;
75639;SDS011;64233;51.486;6.332;2023-02-03T01:08:01;12.05;;;5.85;;
75639;SDS011;64233;51.486;6.332;2023-02-03T01:10:28;12.73;;;6.80;;
75639;SDS011;64233;51.486;6.332;2023-02-03T01:12:54;13.52;;;6.68;;
75639;SDS011;64233;51.486;6.332;2023-02-03T01:15:19;6.85;;;3.47;;
75639;SDS011;64233;51.486;6.332;2023-02-03T01:17:44;9.23;;;5.07;;
75639;SDS011;64233;51.486;6.332;2023-02-03T01:20:10;5.32;;;3.60;;
75639;SDS011;64233;51.486;6.332;2023-02-03T01:22:37;5.47;;;3.03;;
75639;SDS011;64233;51.486;6.332;2023-02-03T01:25:03;14.93;;;6.20;;
75639;SDS011;64233;51.486;6.332;2023-02-03T01:27:28;7.85;;;4.75;;
75639;SDS011;64233;51.486;6.332;2023-02-03T01:29:56;7.13;;;2.72;;
75639;SDS011;64233;51.486;6.332;2023-02-03T01:32:21;8.50;;;5.70;;
75639;SDS011;64233;51.486;6.332;2023-02-03T01:34:46;10.20;;;4.75;;
75639;SDS011;64233;51.486;6.332;2023-02-03T01:37:11;7.10;;;3.83;;
75639;SDS011;64233;51.486;6.332;2023-02-03T01:39:38;9.15;;;5.05;;
75639;SDS011;64233;51.486;6.332;2023-02-03T01:42:03;5.53;;;2.60;;
75639;SDS011;64233;51.486;6.332;2023-02-03T01:44:43;14.50;;;5.25;;
75639;SDS011;64233;51.486;6.332;2023-02-03T01:50:36;9.07;;;5.20;;
75639;SDS011;64233;51.486;6.332;2023-02-03T01:53:04;8.35;;;4.47;;
75639;SDS011;64233;51.486;6.332;2023-02-03T01:55:41;11.07;;;5.40;;
75639;SDS011;64233;51.486;6.332;2023-02-03T01:58:20;9.70;;;5.03;;
75639;SDS011;64233;51.486;6.332;2023-02-03T02:00:49;6.63;;;3.17;;
75639;SDS011;64233;51.486;6.332;2023-02-03T02:03:17;7.78;;;4.50;;
75639;SDS011;64233;51.486;6.332;2023-02-03T02:05:48;6.03;;;3.67;;
75639;SDS011;64233;51.486;6.332;2023-02-03T02:08:18;8.60;;;3.40;;
75639;SDS011;64233;51.486;6.332;2023-02-03T02:10:46;9.27;;;4.47;;
75639;SDS011;64233;51.486;6.332;2023-02-03T02:13:12;6.40;;;4.07;;
75639;SDS011;64233;51.486;6.332;2023-02-03T02:37:52;3.88;;;2.70;;
75639;SDS011;64233;51.486;6.332;2023-02-03T02:40:32;6.28;;;2.50;;
75639;SDS011;64233;51.486;6.332;2023-02-03T02:46:04;8.13;;;3.13;;
75639;SDS011;64233;51.486;6.332;2023-02-03T02:51:27;5.72;;;2.25;;
75639;SDS011;64233;51.486;6.332;2023-02-03T02:53:54;6.22;;;2.53;;
75639;SDS011;64233;51.486;6.332;2023-02-03T02:56:24;3.17;;;1.58;;
75639;SDS011;64233;51.486;6.332;2023-02-03T02:58:51;6.15;;;2.30;;
75639;SDS011;64233;51.486;6.332;2023-02-03T03:01:18;5.43;;;2.17;;
75639;SDS011;64233;51.486;6.332;2023-02-03T03:03:44;4.28;;;2.13;;
75639;SDS011;64233;51.486;6.332;2023-02-03T03:06:11;9.25;;;3.25;;
75639;SDS011;64233;51.486;6.332;2023-02-03T03:08:54;3.53;;;2.25;;
75639;SDS011;64233;51.486;6.332;2023-02-03T03:11:25;6.65;;;2.10;;
75639;SDS011;64233;51.486;6.332;2023-02-03T03:13:53;6.30;;;2.08;;
75639;SDS011;64233;51.486;6.332;2023-02-03T03:16:24;2.58;;;1.65;;
75639;SDS011;64233;51.486;6.332;2023-02-03T03:18:58;8.50;;;2.88;;
75639;SDS011;64233;51.486;6.332;2023-02-03T03:24:00;2.50;;;1.38;;
75639;SDS011;64233;51.486;6.332;2023-02-03T03:26:42;7.75;;;3.38;;
75639;SDS011;64233;51.486;6.332;2023-02-03T03:29:21;15.32;;;3.70;;
75639;SDS011;64233;51.486;6.332;2023-02-03T03:31:48;5.45;;;2.38;;
75639;SDS011;64233;51.486;6.332;2023-02-03T03:34:14;6.22;;;2.08;;
75639;SDS011;64233;51.486;6.332;2023-02-03T03:36:43;3.55;;;2.25;;
75639;SDS011;64233;51.486;6.332;2023-02-03T03:39:19;5.68;;;2.55;;
75639;SDS011;64233;51.486;6.332;2023-02-03T03:42:00;3.25;;;2.17;;
75639;SDS011;64233;51.486;6.332;2023-02-03T03:44:29;3.38;;;2.28;;
75639;SDS011;64233;51.486;6.332;2023-02-03T03:47:46;9.98;;;3.17;;
75639;SDS011;64233;51.486;6.332;2023-02-03T03:49:52;3.97;;;2.58;;
75639;SDS011;64233;51.486;6.332;2023-02-03T03:52:21;4.85;;;2.53;;
75639;SDS011;64233;51.486;6.332;2023-02-03T03:54:51;8.23;;;2.53;;
75639;SDS011;64233;51.486;6.332;2023-02-03T03:57:20;3.53;;;1.90;;
75639;SDS011;64233;51.486;6.332;2023-02-03T03:59:50;6.65;;;3.15;;
75639;SDS011;64233;51.486;6.332;2023-02-03T04:02:17;6.28;;;2.97;;
75639;SDS011;64233;51.486;6.332;2023-02-03T04:04:45;4.43;;;1.98;;
75639;SDS011;64233;51.486;6.332;2023-02-03T04:07:12;6.55;;;3.30;;
75639;SDS011;64233;51.486;6.332;2023-02-03T04:09:38;14.60;;;4.60;;
75639;SDS011;64233;51.486;6.332;2023-02-03T04:12:08;13.07;;;3.63;;
75639;SDS011;64233;51.486;6.332;2023-02-03T04:14:40;5.20;;;2.92;;
75639;SDS011;64233;51.486;6.332;2023-02-03T04:17:05;8.50;;;3.28;;
75639;SDS011;64233;51.486;6.332;2023-02-03T04:19:31;6.00;;;4.15;;
75639;SDS011;64233;51.486;6.332;2023-02-03T04:21:56;5.63;;;3.10;;
75639;SDS011;64233;51.486;6.332;2023-02-03T04:24:21;4.68;;;3.08;;
75639;SDS011;64233;51.486;6.332;2023-02-03T04:26:47;5.40;;;3.45;;
75639;SDS011;64233;51.486;6.332;2023-02-03T04:29:12;3.72;;;2.03;;
75639;SDS011;64233;51.486;6.332;2023-02-03T04:31:38;4.28;;;2.42;;
75639;SDS011;64233;51.486;6.332;2023-02-03T04:34:04;6.97;;;3.00;;
75639;SDS011;64233;51.486;6.332;2023-02-03T04:36:30;15.65;;;2.90;;
75639;SDS011;64233;51.486;6.332;2023-02-03T04:38:55;2.92;;;1.92;;
75639;SDS011;64233;51.486;6.332;2023-02-03T04:41:20;6.07;;;2.25;;
75639;SDS011;64233;51.486;6.332;2023-02-03T04:43:46;6.10;;;1.75;;
75639;SDS011;64233;51.486;6.332;2023-02-03T04:46:12;2.25;;;1.60;;
75639;SDS011;64233;51.486;6.332;2023-02-03T04:48:37;1.95;;;1.33;;
75639;SDS011;64233;51.486;6.332;2023-02-03T04:51:03;9.70;;;2.05;;
75639;SDS011;64233;51.486;6.332;2023-02-03T04:53:30;3.15;;;2.15;;
75639;SDS011;64233;51.486;6.332;2023-02-03T04:55:56;2.97;;;2.05;;
75639;SDS011;64233;51.486;6.332;2023-02-03T04:58:21;3.67;;;1.92;;
75639;SDS011;64233;51.486;6.332;2023-02-03T05:00:46;4.22;;;1.80;;
75639;SDS011;64233;51.486;6.332;2023-02-03T05:03:12;5.10;;;1.88;;
75639;SDS011;64233;51.486;6.332;2023-02-03T05:05:37;2.95;;;1.40;;
75639;SDS011;64233;51.486;6.332;2023-02-03T05:08:02;3.10;;;1.58;;
75639;SDS011;64233;51.486;6.332;2023-02-03T05:10:28;5.43;;;1.73;;
75639;SDS011;64233;51.486;6.332;2023-02-03T05:12:53;4.60;;;1.50;;
75639;SDS011;64233;51.486;6.332;2023-02-03T05:15:19;4.88;;;1.80;;
75639;SDS011;64233;51.486;6.332;2023-02-03T05:17:44;3.78;;;2.20;;
75639;SDS011;64233;51.486;6.332;2023-02-03T05:20:09;4.50;;;2.28;;
75639;SDS011;64233;51.486;6.332;2023-02-03T05:22:35;2.53;;;1.83;;
75639;SDS011;64233;51.486;6.332;2023-02-03T05:25:01;1.85;;;1.35;;
75639;SDS011;64233;51.486;6.332;2023-02-03T05:27:27;4.75;;;1.45;;
75639;SDS011;64233;51.486;6.332;2023-02-03T05:29:52;5.38;;;1.88;;
75639;SDS011;64233;51.486;6.332;2023-02-03T05:32:17;0.82;;;0.82;;
75639;SDS011;64233;51.486;6.332;2023-02-03T05:34:42;2.63;;;1.65;;
75639;SDS011;64233;51.486;6.332;2023-02-03T05:37:08;0.77;;;0.77;;
75639;SDS011;64233;51.486;6.332;2023-02-03T05:39:33;3.45;;;1.75;;
75639;SDS011;64233;51.486;6.332;2023-02-03T05:41:58;3.17;;;1.20;;
75639;SDS011;64233;51.486;6.332;2023-02-03T05:44:25;3.22;;;1.10;;
75639;SDS011;64233;51.486;6.332;2023-02-03T05:46:52;4.82;;;1.83;;
75639;SDS011;64233;51.486;6.332;2023-02-03T05:49:18;7.55;;;1.55;;
75639;SDS011;64233;51.486;6.332;2023-02-03T05:51:44;3.28;;;1.52;;
75639;SDS011;64233;51.486;6.332;2023-02-03T05:54:09;5.25;;;1.77;;
75639;SDS011;64233;51.486;6.332;2023-02-03T05:56:35;2.05;;;1.38;;
75639;SDS011;64233;51.486;6.332;2023-02-03T05:59:00;4.15;;;1.90;;
75639;SDS011;64233;51.486;6.332;2023-02-03T06:01:26;3.88;;;1.58;;
75639;SDS011;64233;51.486;6.332;2023-02-03T06:03:51;4.78;;;1.95;;
75639;SDS011;64233;51.486;6.332;2023-02-03T06:06:16;6.38;;;1.90;;
75639;SDS011;64233;51.486;6.332;2023-02-03T06:08:42;3.63;;;1.20;;
75639;SDS011;64233;51.486;6.332;2023-02-03T06:11:08;2.45;;;1.73;;
75639;SDS011;64233;51.486;6.332;2023-02-03T06:13:34;2.83;;;1.80;;
75639;SDS011;64233;51.486;6.332;2023-02-03T06:15:59;6.15;;;1.65;;
75639;SDS011;64233;51.486;6.332;2023-02-03T06:18:25;5.80;;;1.77;;
75639;SDS011;64233;51.486;6.332;2023-02-03T06:20:50;1.13;;;0.57;;
75639;SDS011;64233;51.486;6.332;2023-02-03T06:23:15;1.20;;;1.05;;
75639;SDS011;64233;51.486;6.332;2023-02-03T06:25:43;1.83;;;0.95;;
75639;SDS011;64233;51.486;6.332;2023-02-03T06:28:09;1.77;;;1.30;;
75639;SDS011;64233;51.486;6.332;2023-02-03T06:30:34;4.55;;;1.42;;
75639;SDS011;64233;51.486;6.332;2023-02-03T06:32:59;1.40;;;1.13;;
75639;SDS011;64233;51.486;6.332;2023-02-03T06:35:24;1.58;;;0.80;;
75639;SDS011;64233;51.486;6.332;2023-02-03T06:37:50;3.85;;;1.55;;
75639;SDS011;64233;51.486;6.332;2023-02-03T06:40:15;4.97;;;1.13;;
75639;SDS011;64233;51.486;6.332;2023-02-03T06:42:43;0.55;;;0.55;;
75639;SDS011;64233;51.486;6.332;2023-02-03T06:45:09;6.68;;;1.98;;
75639;SDS011;64233;51.486;6.332;2023-02-03T06:47:34;1.55;;;0.90;;
75639;SDS011;64233;51.486;6.332;2023-02-03T06:50:03;3.47;;;1.65;;
75639;SDS011;64233;51.486;6.332;2023-02-03T06:52:29;1.63;;;1.10;;
75639;SDS011;64233;51.486;6.332;2023-02-03T06:54:54;4.13;;;1.73;;
75639;SDS011;64233;51.486;6.332;2023-02-03T06:57:19;5.25;;;2.03;;
75639;SDS011;64233;51.486;6.332;2023-02-03T06:59:44;2.67;;;1.15;;
75639;SDS011;64233;51.486;6.332;2023-02-03T07:02:10;0.70;;;0.70;;
75639;SDS011;64233;51.486;6.332;2023-02-03T07:04:35;2.90;;;0.95;;
75639;SDS011;64233;51.486;6.332;2023-02-03T07:07:02;3.67;;;1.52;;
75639;SDS011;64233;51.486;6.332;2023-02-03T07:09:28;6.43;;;1.27;;
75639;SDS011;64233;51.486;6.332;2023-02-03T07:11:53;1.45;;;1.35;;
75639;SDS011;64233;51.486;6.332;2023-02-03T07:14:18;1.27;;;0.95;;
75639;SDS011;64233;51.486;6.332;2023-02-03T07:16:43;2.00;;;1.08;;
75639;SDS011;64233;51.486;6.332;2023-02-03T07:19:09;2.03;;;1.65;;
75639;SDS011;64233;51.486;6.332;2023-02-03T07:21:34;6.18;;;1.63;;
75639;SDS011;64233;51.486;6.332;2023-02-03T07:24:06;0.98;;;0.77;;
75639;SDS011;64233;51.486;6.332;2023-02-03T07:26:38;4.00;;;1.48;;
75639;SDS011;64233;51.486;6.332;2023-02-03T07:29:03;2.22;;;0.77;;
75639;SDS011;64233;51.486;6.332;2023-02-03T07:31:29;4.82;;;1.10;;
75639;SDS011;64233;51.486;6.332;2023-02-03T07:33:55;4.68;;;1.40;;
75639;SDS011;64233;51.486;6.332;2023-02-03T07:36:20;1.52;;;0.93;;
75639;SDS011;64233;51.486;6.332;2023-02-03T07:38:45;3.28;;;0.95;;
75639;SDS011;64233;51.486;6.332;2023-02-03T07:41:11;2.28;;;1.50;;
75639;SDS011;64233;51.486;6.332;2023-02-03T07:43:36;4.03;;;1.50;;
75639;SDS011;64233;51.486;6.332;2023-02-03T07:46:01;4.03;;;1.30;;
75639;SDS011;64233;51.486;6.332;2023-02-03T07:48:27;1.00;;;0.90;;
75639;SDS011;64233;51.486;6.332;2023-02-03T07:50:52;3.15;;;1.63;;
75639;SDS011;64233;51.486;6.332;2023-02-03T07:53:17;3.60;;;1.23;;
75639;SDS011;64233;51.486;6.332;2023-02-03T07:55:43;3.63;;;1.90;;
75639;SDS011;64233;51.486;6.332;2023-02-03T07:58:08;3.08;;;1.17;;
75639;SDS011;64233;51.486;6.332;2023-02-03T08:00:33;1.90;;;1.52;;
75639;SDS011;64233;51.486;6.332;2023-02-03T08:02:59;3.90;;;1.52;;
75639;SDS011;64233;51.486;6.332;2023-02-03T08:05:24;3.25;;;1.65;;
75639;SDS011;64233;51.486;6.332;2023-02-03T08:07:50;1.50;;;1.25;;
75639;SDS011;64233;51.486;6.332;2023-02-03T08:10:15;3.38;;;1.48;;
75639;SDS011;64233;51.486;6.332;2023-02-03T08:12:41;1.52;;;1.00;;
75639;SDS011;64233;51.486;6.332;2023-02-03T08:15:08;1.98;;;1.33;;
75639;SDS011;64233;51.486;6.332;2023-02-03T08:17:34;2.03;;;0.93;;
75639;SDS011;64233;51.486;6.332;2023-02-03T08:19:59;3.63;;;0.68;;
75639;SDS011;64233;51.486;6.332;2023-02-03T08:22:25;8.57;;;0.95;;
75639;SDS011;64233;51.486;6.332;2023-02-03T08:24:50;3.67;;;1.52;;
75639;SDS011;64233;51.486;6.332;2023-02-03T08:27:19;5.10;;;1.17;;
75639;SDS011;64233;51.486;6.332;2023-02-03T08:29:46;5.88;;;1.90;;
75639;SDS011;64233;51.486;6.332;2023-02-03T08:32:13;7.25;;;2.10;;
75639;SDS011;64233;51.486;6.332;2023-02-03T08:34:43;3.95;;;1.38;;
75639;SDS011;64233;51.486;6.332;2023-02-03T08:37:09;0.82;;;0.73;;
75639;SDS011;64233;51.486;6.332;2023-02-03T08:39:38;1.10;;;0.73;;
75639;SDS011;64233;51.486;6.332;2023-02-03T08:42:04;2.85;;;1.10;;
75639;SDS011;64233;51.486;6.332;2023-02-03T08:44:30;6.78;;;1.23;;
75639;SDS011;64233;51.486;6.332;2023-02-03T08:46:56;3.15;;;1.83;;
75639;SDS011;64233;51.486;6.332;2023-02-03T08:49:22;1.77;;;1.48;;
75639;SDS011;64233;51.486;6.332;2023-02-03T08:51:50;6.43;;;1.63;;
75639;SDS011;64233;51.486;6.332;2023-02-03T08:54:16;3.60;;;1.67;;
75639;SDS011;64233;51.486;6.332;2023-02-03T08:56:43;2.22;;;1.23;;
75639;SDS011;64233;51.486;6.332;2023-02-03T08:59:08;1.45;;;1.20;;
75639;SDS011;64233;51.486;6.332;2023-02-03T09:01:34;6.45;;;1.65;;
75639;SDS011;64233;51.486;6.332;2023-02-03T09:03:59;3.13;;;1.25;;
75639;SDS011;64233;51.486;6.332;2023-02-03T09:06:27;2.92;;;1.52;;
75639;SDS011;64233;51.486;6.332;2023-02-03T09:08:54;1.27;;;0.80;;
75639;SDS011;64233;51.486;6.332;2023-02-03T09:11:20;1.50;;;1.02;;
75639;SDS011;64233;51.486;6.332;2023-02-03T09:13:45;7.18;;;1.65;;
75639;SDS011;64233;51.486;6.332;2023-02-03T09:16:13;2.13;;;1.00;;
75639;SDS011;64233;51.486;6.332;2023-02-03T09:18:41;1.67;;;1.40;;
75639;SDS011;64233;51.486;6.332;2023-02-03T09:21:07;1.15;;;1.15;;
75639;SDS011;64233;51.486;6.332;2023-02-03T09:23:37;2.40;;;1.13;;
75639;SDS011;64233;51.486;6.332;2023-02-03T09:26:03;6.15;;;1.17;;
75639;SDS011;64233;51.486;6.332;2023-02-03T09:28:30;4.10;;;1.75;;
75639;SDS011;64233;51.486;6.332;2023-02-03T09:31:03;0.85;;;0.82;;
75639;SDS011;64233;51.486;6.332;2023-02-03T09:33:29;5.28;;;1.23;;
75639;SDS011;64233;51.486;6.332;2023-02-03T09:35:55;4.90;;;1.58;;
75639;SDS011;64233;51.486;6.332;2023-02-03T09:38:22;3.72;;;1.33;;
75639;SDS011;64233;51.486;6.332;2023-02-03T09:40:58;1.50;;;1.00;;
75639;SDS011;64233;51.486;6.332;2023-02-03T09:43:30;2.97;;;1.35;;
75639;SDS011;64233;51.486;6.332;2023-02-03T09:46:01;1.55;;;1.42;;
75639;SDS011;64233;51.486;6.332;2023-02-03T09:48:32;2.53;;;1.75;;
75639;SDS011;64233;51.486;6.332;2023-02-03T09:51:02;1.02;;;0.95;;
75639;SDS011;64233;51.486;6.332;2023-02-03T09:53:35;1.85;;;1.20;;
75639;SDS011;64233;51.486;6.332;2023-02-03T09:56:17;2.38;;;1.23;;
75639;SDS011;64233;51.486;6.332;2023-02-03T09:58:49;2.22;;;1.45;;
75639;SDS011;64233;51.486;6.332;2023-02-03T10:01:15;2.30;;;1.85;;
75639;SDS011;64233;51.486;6.332;2023-02-03T10:06:30;1.38;;;1.25;;
75639;SDS011;64233;51.486;6.332;2023-02-03T10:17:46;5.47;;;1.58;;
75639;SDS011;64233;51.486;6.332;2023-02-03T10:20:18;2.72;;;1.33;;
75639;SDS011;64233;51.486;6.332;2023-02-03T10:22:49;9.57;;;2.13;;
75639;SDS011;64233;51.486;6.332;2023-02-03T10:25:19;1.38;;;1.17;;
75639;SDS011;64233;51.486;6.332;2023-02-03T10:27:50;1.30;;;1.13;;
75639;SDS011;64233;51.486;6.332;2023-02-03T10:32:50;3.38;;;1.60;;
75639;SDS011;64233;51.486;6.332;2023-02-03T10:35:20;1.08;;;0.82;;
75639;SDS011;64233;51.486;6.332;2023-02-03T10:37:49;0.60;;;0.60;;
75639;SDS011;64233;51.486;6.332;2023-02-03T10:40:17;2.22;;;1.17;;
75639;SDS011;64233;51.486;6.332;2023-02-03T10:42:49;1.17;;;1.02;;
75639;SDS011;64233;51.486;6.332;2023-02-03T10:45:35;2.38;;;1.45;;
75639;SDS011;64233;51.486;6.332;2023-02-03T10:48:02;3.40;;;1.15;;
75639;SDS011;64233;51.486;6.332;2023-02-03T10:50:29;5.35;;;1.70;;
75639;SDS011;64233;51.486;6.332;2023-02-03T10:55:50;2.15;;;1.20;;
75639;SDS011;64233;51.486;6.332;2023-02-03T10:58:28;1.67;;;1.27;;
75639;SDS011;64233;51.486;6.332;2023-02-03T11:00:56;5.32;;;2.28;;
75639;SDS011;64233;51.486;6.332;2023-02-03T11:03:28;3.53;;;2.08;;
75639;SDS011;64233;51.486;6.332;2023-02-03T11:06:04;2.35;;;0.90;;
75639;SDS011;64233;51.486;6.332;2023-02-03T11:08:36;1.60;;;1.30;;
75639;SDS011;64233;51.486;6.332;2023-02-03T11:11:04;9.02;;;2.45;;
75639;SDS011;64233;51.486;6.332;2023-02-03T11:13:32;5.22;;;1.80;;
75639;SDS011;64233;51.486;6.332;2023-02-03T11:16:31;1.90;;;1.52;;
75639;SDS011;64233;51.486;6.332;2023-02-03T11:26:56;8.20;;;1.48;;
75639;SDS011;64233;51.486;6.332;2023-02-03T11:29:31;1.65;;;1.55;;
75639;SDS011;64233;51.486;6.332;2023-02-03T11:32:41;1.70;;;0.85;;
75639;SDS011;64233;51.486;6.332;2023-02-03T11:34:56;6.53;;;2.40;;
75639;SDS011;64233;51.486;6.332;2023-02-03T11:37:30;2.75;;;0.98;;
75639;SDS011;64233;51.486;6.332;2023-02-03T11:42:36;2.33;;;1.92;;
75639;SDS011;64233;51.486;6.332;2023-02-03T11:52:56;3.58;;;2.15;;
75639;SDS011;64233;51.486;6.332;2023-02-03T12:01:16;4.38;;;2.03;;
75639;SDS011;64233;51.486;6.332;2023-02-03T12:09:33;7.03;;;1.92;;
75639;SDS011;64233;51.486;6.332;2023-02-03T12:23:36;4.88;;;2.22;;
75639;SDS011;64233;51.486;6.332;2023-02-03T12:28:54;9.20;;;2.90;;
75639;SDS011;64233;51.486;6.332;2023-02-03T12:31:39;3.00;;;2.08;;
75639;SDS011;64233;51.486;6.332;2023-02-03T12:34:26;9.80;;;3.05;;
75639;SDS011;64233;51.486;6.332;2023-02-03T12:37:16;5.32;;;2.42;;
75639;SDS011;64233;51.486;6.332;2023-02-03T12:39:51;3.22;;;2.00;;
75639;SDS011;64233;51.486;6.332;2023-02-03T12:44:50;2.03;;;1.83;;
75639;SDS011;64233;51.486;6.332;2023-02-03T12:47:25;11.05;;;3.08;;
75639;SDS011;64233;51.486;6.332;2023-02-03T12:50:01;3.08;;;2.05;;
75639;SDS011;64233;51.486;6.332;2023-02-03T12:53:24;5.35;;;2.10;;
75639;SDS011;64233;51.486;6.332;2023-02-03T12:55:45;1.58;;;1.25;;
75639;SDS011;64233;51.486;6.332;2023-02-03T12:58:23;5.38;;;2.20;;
75639;SDS011;64233;51.486;6.332;2023-02-03T13:00:52;7.00;;;1.97;;
75639;SDS011;64233;51.486;6.332;2023-02-03T13:06:05;3.03;;;1.92;;
75639;SDS011;64233;51.486;6.332;2023-02-03T13:08:37;1.05;;;0.88;;
75639;SDS011;64233;51.486;6.332;2023-02-03T13:11:15;9.45;;;2.67;;
75639;SDS011;64233;51.486;6.332;2023-02-03T13:13:51;5.03;;;2.78;;
75639;SDS011;64233;51.486;6.332;2023-02-03T13:16:22;4.65;;;2.33;;
75639;SDS011;64233;51.486;6.332;2023-02-03T13:18:55;2.50;;;1.65;;
75639;SDS011;64233;51.486;6.332;2023-02-03T13:21:26;3.30;;;1.48;;
75639;SDS011;64233;51.486;6.332;2023-02-03T13:23:51;3.30;;;1.30;;
75639;SDS011;64233;51.486;6.332;2023-02-03T13:26:21;7.03;;;2.22;;
75639;SDS011;64233;51.486;6.332;2023-02-03T13:37:33;2.03;;;1.35;;
75639;SDS011;64233;51.486;6.332;2023-02-03T13:43:04;2.33;;;1.45;;
75639;SDS011;64233;51.486;6.332;2023-02-03T13:51:01;4.35;;;2.38;;
75639;SDS011;64233;51.486;6.332;2023-02-03T13:53:35;5.22;;;1.73;;
75639;SDS011;64233;51.486;6.332;2023-02-03T13:56:05;4.32;;;1.83;;
75639;SDS011;64233;51.486;6.332;2023-02-03T13:58:33;4.13;;;2.17;;
75639;SDS011;64233;51.486;6.332;2023-02-03T14:01:03;5.30;;;2.15;;
75639;SDS011;64233;51.486;6.332;2023-02-03T14:03:47;2.78;;;0.70;;
75639;SDS011;64233;51.486;6.332;2023-02-03T14:06:53;6.05;;;2.08;;
75639;SDS011;64233;51.486;6.332;2023-02-03T14:09:44;2.35;;;1.52;;
75639;SDS011;64233;51.486;6.332;2023-02-03T14:12:12;5.40;;;0.95;;
75639;SDS011;64233;51.486;6.332;2023-02-03T14:19:59;3.85;;;1.70;;
75639;SDS011;64233;51.486;6.332;2023-02-03T14:22:24;6.43;;;1.75;;
75639;SDS011;64233;51.486;6.332;2023-02-03T14:24:51;6.40;;;2.33;;
75639;SDS011;64233;51.486;6.332;2023-02-03T14:27:20;4.68;;;1.75;;
75639;SDS011;64233;51.486;6.332;2023-02-03T14:30:07;6.90;;;1.63;;
75639;SDS011;64233;51.486;6.332;2023-02-03T14:32:51;2.58;;;1.30;;
75639;SDS011;64233;51.486;6.332;2023-02-03T14:35:20;7.65;;;1.30;;
75639;SDS011;64233;51.486;6.332;2023-02-03T14:37:50;2.47;;;1.35;;
75639;SDS011;64233;51.486;6.332;2023-02-03T14:43:05;6.78;;;1.35;;
75639;SDS011;64233;51.486;6.332;2023-02-03T14:58:51;8.93;;;1.57;;
75639;SDS011;64233;51.486;6.332;2023-02-03T15:01:23;6.93;;;2.13;;
75639;SDS011;64233;51.486;6.332;2023-02-03T15:06:44;6.82;;;2.08;;
75639;SDS011;64233;51.486;6.332;2023-02-03T15:11:55;12.40;;;1.65;;
75639;SDS011;64233;51.486;6.332;2023-02-03T15:17:01;9.80;;;1.73;;
75639;SDS011;64233;51.486;6.332;2023-02-03T15:22:15;5.97;;;1.50;;
75639;SDS011;64233;51.486;6.332;2023-02-03T15:24:42;8.07;;;1.33;;
75639;SDS011;64233;51.486;6.332;2023-02-03T15:27:20;9.27;;;1.75;;
75639;SDS011;64233;51.486;6.332;2023-02-03T15:29:47;6.82;;;2.00;;
75639;SDS011;64233;51.486;6.332;2023-02-03T15:32:26;15.88;;;2.25;;
75639;SDS011;64233;51.486;6.332;2023-02-03T15:34:57;8.02;;;1.55;;
75639;SDS011;64233;51.486;6.332;2023-02-03T15:37:32;4.05;;;1.35;;
75639;SDS011;64233;51.486;6.332;2023-02-03T15:42:38;7.47;;;2.17;;
75639;SDS011;64233;51.486;6.332;2023-02-03T15:47:45;5.03;;;1.55;;
75639;SDS011;64233;51.486;6.332;2023-02-03T15:50:29;2.97;;;1.40;;
75639;SDS011;64233;51.486;6.332;2023-02-03T15:52:59;14.40;;;2.15;;
75639;SDS011;64233;51.486;6.332;2023-02-03T15:58:21;8.10;;;1.77;;
75639;SDS011;64233;51.486;6.332;2023-02-03T16:00:50;12.57;;;1.83;;
75639;SDS011;64233;51.486;6.332;2023-02-03T16:03:18;11.07;;;2.28;;
75639;SDS011;64233;51.486;6.332;2023-02-03T16:05:46;7.57;;;2.05;;
75639;SDS011;64233;51.486;6.332;2023-02-03T16:14:01;2.42;;;0.88;;
75639;SDS011;64233;51.486;6.332;2023-02-03T16:29:50;4.32;;;1.73;;
75639;SDS011;64233;51.486;6.332;2023-02-03T16:35:47;8.45;;;1.48;;
75639;SDS011;64233;51.486;6.332;2023-02-03T16:38:31;11.65;;;1.77;;
75639;SDS011;64233;51.486;6.332;2023-02-03T16:41:16;9.82;;;1.88;;
75639;SDS011;64233;51.486;6.332;2023-02-03T16:44:00;10.38;;;2.33;;
75639;SDS011;64233;51.486;6.332;2023-02-03T16:46:44;9.77;;;2.38;;
75639;SDS011;64233;51.486;6.332;2023-02-03T16:49:29;8.73;;;2.20;;
75639;SDS011;64233;51.486;6.332;2023-02-03T16:52:13;15.55;;;2.63;;
75639;SDS011;64233;51.486;6.332;2023-02-03T16:54:38;7.55;;;2.08;;
75639;SDS011;64233;51.486;6.332;2023-02-03T16:57:04;14.05;;;1.85;;
75639;SDS011;64233;51.486;6.332;2023-02-03T16:59:29;9.25;;;1.80;;
75639;SDS011;64233;51.486;6.332;2023-02-03T17:01:54;9.60;;;3.45;;
75639;SDS011;64233;51.486;6.332;2023-02-03T17:04:20;7.55;;;1.70;;
75639;SDS011;64233;51.486;6.332;2023-02-03T17:06:45;8.75;;;1.58;;
75639;SDS011;64233;51.486;6.332;2023-02-03T17:09:14;15.00;;;2.55;;
75639;SDS011;64233;51.486;6.332;2023-02-03T17:11:40;11.35;;;3.08;;
75639;SDS011;64233;51.486;6.332;2023-02-03T17:14:05;6.70;;;1.85;;
75639;SDS011;64233;51.486;6.332;2023-02-03T17:16:30;9.93;;;2.08;;
75639;SDS011;64233;51.486;6.332;2023-02-03T17:18:57;8.07;;;2.15;;
75639;SDS011;64233;51.486;6.332;2023-02-03T17:21:23;11.48;;;1.85;;
75639;SDS011;64233;51.486;6.332;2023-02-03T17:23:51;7.90;;;1.80;;
75639;SDS011;64233;51.486;6.332;2023-02-03T17:26:17;8.30;;;2.38;;
75639;SDS011;64233;51.486;6.332;2023-02-03T17:28:42;6.60;;;1.65;;
75639;SDS011;64233;51.486;6.332;2023-02-03T17:31:10;9.25;;;1.45;;
75639;SDS011;64233;51.486;6.332;2023-02-03T17:33:38;12.70;;;2.55;;
75639;SDS011;64233;51.486;6.332;2023-02-03T17:38:30;9.10;;;2.58;;
75639;SDS011;64233;51.486;6.332;2023-02-03T17:40:59;9.18;;;2.88;;
75639;SDS011;64233;51.486;6.332;2023-02-03T17:43:31;7.35;;;2.03;;
75639;SDS011;64233;51.486;6.332;2023-02-03T17:45:57;11.73;;;2.17;;
75639;SDS011;64233;51.486;6.332;2023-02-03T17:48:24;6.18;;;2.70;;
75639;SDS011;64233;51.486;6.332;2023-02-03T17:50:49;8.95;;;2.60;;
75639;SDS011;64233;51.486;6.332;2023-02-03T17:53:14;12.32;;;2.50;;
75639;SDS011;64233;51.486;6.332;2023-02-03T17:55:40;7.97;;;2.42;;
75639;SDS011;64233;51.486;6.332;2023-02-03T17:58:05;7.30;;;1.70;;